^^
Station Historical Data
Daily Summary for January 25, 2017 Units:  English    Metric   Both
« Previous Day
Next Day »
Daily Weekly Monthly Yearly Custom
  High: Low: Average:
Temperature: 51.4 °F 37.6 °F 44.1 °F
Dew Point: 36.8 °F 29.5 °F 34 °F
Humidity: 79 % 56 % 68 %
Wind Speed: 20.0 mph 0.0 mph 6.2 mph
Wind Gust: 27.6 mph - -
Wind:- - West
Pressure: 29.74 in 29.56 in -
Precipitation: 0.00 in    
Historical Graphs
 
 
Tabular Data for January 25, 2017
Time Temperature Dew Point Pressure Wind Wind Speed Wind Gust Humidity Rainfall Rate (Hourly) solar Conditions
00:03 37.9 °F 30.7 °F 29.60 in WNW 7.3 mph 13.8 mph 75 % 0.00 in 0.0 W/m2 RA
00:08 37.9 °F 30.7 °F 29.60 in WNW 12.8 mph 15.0 mph 75 % 0.00 in 0.0 W/m2 RA
00:13 37.9 °F 31.0 °F 29.60 in WNW 11.1 mph 19.6 mph 76 % 0.00 in 0.0 W/m2 CLR
00:18 37.9 °F 31.0 °F 29.60 in WNW 13.3 mph 20.7 mph 76 % 0.00 in 0.0 W/m2 CLR
00:23 37.9 °F 31.0 °F 29.60 in WNW 10.1 mph 16.1 mph 76 % 0.00 in 0.0 W/m2 CLR
00:28 37.9 °F 31.0 °F 29.60 in West 13.0 mph 18.4 mph 76 % 0.00 in 0.0 W/m2 CLR
00:33 37.9 °F 31.0 °F 29.60 in WNW 9.8 mph 13.8 mph 76 % 0.00 in 0.0 W/m2 CLR
00:38 37.9 °F 31.0 °F 29.60 in WNW 8.4 mph 12.7 mph 76 % 0.00 in 0.0 W/m2 CLR
00:43 37.9 °F 31.0 °F 29.61 in WNW 9.0 mph 19.6 mph 76 % 0.00 in 0.0 W/m2 CLR
00:48 37.9 °F 31.0 °F 29.61 in WNW 7.2 mph 11.5 mph 76 % 0.00 in 0.0 W/m2 CLR
00:53 37.9 °F 31.0 °F 29.61 in NW 14.8 mph 19.6 mph 76 % 0.00 in 0.0 W/m2 CLR
00:58 37.9 °F 31.0 °F 29.61 in WSW 9.5 mph 12.7 mph 76 % 0.00 in 0.0 W/m2 CLR
01:03 37.9 °F 31.0 °F 29.61 in NW 13.5 mph 19.6 mph 76 % 0.00 in 0.0 W/m2 CLR
01:08 37.9 °F 31.0 °F 29.61 in WNW 10.4 mph 16.1 mph 76 % 0.00 in 0.0 W/m2 CLR
01:13 37.9 °F 30.7 °F 29.61 in West 6.3 mph 10.4 mph 75 % 0.00 in 0.0 W/m2 CLR
01:18 37.9 °F 30.7 °F 29.61 in WNW 9.5 mph 13.8 mph 75 % 0.00 in 0.0 W/m2 CLR
01:23 37.8 °F 30.6 °F 29.61 in West 14.8 mph 23.0 mph 75 % 0.00 in 0.0 W/m2 CLR
01:28 37.8 °F 30.3 °F 29.61 in WNW 12.4 mph 18.0 mph 74 % 0.00 in 0.0 W/m2 CLR
01:33 37.7 °F 29.8 °F 29.61 in NW 15.8 mph 17.3 mph 73 % 0.00 in 0.0 W/m2 CLR
01:38 37.6 °F 29.7 °F 29.61 in NW 10.8 mph 19.6 mph 73 % 0.00 in 0.0 W/m2 CLR
01:43 37.6 °F 29.7 °F 29.62 in WNW 10.4 mph 16.1 mph 73 % 0.00 in 0.0 W/m2 CLR
01:48 37.6 °F 29.7 °F 29.62 in NNW 11.8 mph 19.0 mph 73 % 0.00 in 0.0 W/m2 CLR
01:53 37.6 °F 29.7 °F 29.62 in NW 16.0 mph 20.7 mph 73 % 0.00 in 0.0 W/m2 CLR
01:58 37.7 °F 29.5 °F 29.63 in West 11.3 mph 18.4 mph 72 % 0.00 in 0.0 W/m2 CLR
02:03 37.8 °F 29.6 °F 29.63 in WNW 13.2 mph 19.6 mph 72 % 0.00 in 0.0 W/m2 CLR
02:09 37.7 °F 29.5 °F 29.63 in WNW 12.2 mph 17.3 mph 72 % 0.00 in 0.0 W/m2 CLR
02:14 37.8 °F 29.6 °F 29.63 in NW 20.0 mph 27.6 mph 72 % 0.00 in 0.0 W/m2 CLR
02:19 37.9 °F 29.7 °F 29.64 in NNW 15.6 mph 20.0 mph 72 % 0.00 in 0.0 W/m2 CLR
02:24 37.9 °F 29.7 °F 29.64 in WNW 9.6 mph 18.4 mph 72 % 0.00 in 0.0 W/m2 CLR
02:29 37.9 °F 29.7 °F 29.64 in WNW 11.3 mph 17.3 mph 72 % 0.00 in 0.0 W/m2 CLR
02:34 37.9 °F 29.7 °F 29.64 in NW 7.9 mph 15.0 mph 72 % 0.00 in 0.0 W/m2 CLR
02:39 38.0 °F 29.8 °F 29.65 in West 11.7 mph 19.6 mph 72 % 0.00 in 0.0 W/m2 CLR
02:44 38.1 °F 29.5 °F 29.65 in WNW 9.9 mph 16.1 mph 71 % 0.00 in 0.0 W/m2 CLR
02:49 38.3 °F 29.7 °F 29.65 in West 9.1 mph 16.1 mph 71 % 0.00 in 0.0 W/m2 CLR
02:54 38.4 °F 29.8 °F 29.65 in NNW 3.5 mph 16.0 mph 71 % 0.00 in 0.0 W/m2 CLR
02:59 38.4 °F 29.8 °F 29.65 in WNW 5.9 mph 11.5 mph 71 % 0.00 in 0.0 W/m2 CLR
03:04 38.5 °F 29.9 °F 29.65 in WNW 11.5 mph 17.3 mph 71 % 0.00 in 0.0 W/m2 CLR
03:09 38.6 °F 30.0 °F 29.65 in WNW 9.3 mph 13.8 mph 71 % 0.00 in 0.0 W/m2 CLR
03:14 38.6 °F 30.0 °F 29.65 in WNW 3.5 mph 4.6 mph 71 % 0.00 in 0.0 W/m2 CLR
03:19 38.6 °F 30.4 °F 29.65 in WNW 3.7 mph 5.8 mph 72 % 0.00 in 0.0 W/m2 CLR
03:24 38.6 °F 30.4 °F 29.65 in West 5.0 mph 8.0 mph 72 % 0.00 in 0.0 W/m2 CLR
03:29 38.7 °F 30.4 °F 29.65 in WNW 6.0 mph 15.0 mph 72 % 0.00 in 0.0 W/m2 CLR
03:34 38.8 °F 30.5 °F 29.65 in West 6.0 mph 8.1 mph 72 % 0.00 in 0.0 W/m2 CLR
03:39 38.8 °F 30.9 °F 29.65 in West 1.7 mph 3.5 mph 73 % 0.00 in 0.0 W/m2 CLR
03:44 38.9 °F 31.0 °F 29.65 in WSW 4.8 mph 9.2 mph 73 % 0.00 in 0.0 W/m2 CLR
03:49 38.9 °F 31.3 °F 29.65 in WSW 2.2 mph 3.5 mph 74 % 0.00 in 0.0 W/m2 CLR
03:54 38.9 °F 31.3 °F 29.65 in West 3.7 mph 8.1 mph 74 % 0.00 in 0.0 W/m2 CLR
03:59 38.9 °F 31.6 °F 29.65 in West 4.9 mph 10.4 mph 75 % 0.00 in 0.0 W/m2 CLR
04:04 39.0 °F 31.7 °F 29.65 in West 4.8 mph 10.4 mph 75 % 0.00 in 0.0 W/m2 CLR
04:09 39.0 °F 32.1 °F 29.65 in West 2.8 mph 6.9 mph 76 % 0.00 in 0.0 W/m2 CLR
04:14 39.0 °F 32.1 °F 29.66 in West 5.6 mph 8.1 mph 76 % 0.00 in 0.0 W/m2 CLR
04:19 39.0 °F 32.1 °F 29.65 in WSW 3.9 mph 8.1 mph 76 % 0.00 in 0.0 W/m2 CLR
04:24 39.0 °F 32.4 °F 29.66 in West 2.8 mph 3.5 mph 77 % 0.00 in 0.0 W/m2 CLR
04:29 39.0 °F 32.4 °F 29.66 in West 2.0 mph 11.0 mph 77 % 0.00 in 0.0 W/m2 CLR
04:34 39.0 °F 32.7 °F 29.66 in SW 5.0 mph 6.9 mph 78 % 0.00 in 0.0 W/m2 CLR
04:39 39.1 °F 32.8 °F 29.66 in WSW 3.5 mph 6.9 mph 78 % 0.00 in 0.0 W/m2 CLR
04:44 39.1 °F 32.8 °F 29.66 in West 2.5 mph 3.5 mph 78 % 0.00 in 0.0 W/m2 CLR
04:49 39.1 °F 33.1 °F 29.67 in West 6.6 mph 11.5 mph 79 % 0.00 in 0.0 W/m2 CLR
04:54 39.3 °F 33.3 °F 29.67 in West 5.2 mph 10.4 mph 79 % 0.00 in 0.0 W/m2 CLR
04:59 39.5 °F 33.5 °F 29.67 in NW 9.9 mph 17.3 mph 79 % 0.00 in 0.0 W/m2 CLR
05:04 39.7 °F 33.7 °F 29.67 in NW 7.9 mph 11.5 mph 79 % 0.00 in 0.0 W/m2 CLR
05:09 39.9 °F 33.9 °F 29.67 in WNW 8.1 mph 11.5 mph 79 % 0.00 in 0.0 W/m2 CLR
05:14 40.0 °F 34.0 °F 29.67 in WNW 9.0 mph 12.7 mph 79 % 0.00 in 0.0 W/m2 CLR
05:19 40.1 °F 34.1 °F 29.67 in West 5.4 mph 8.1 mph 79 % 0.00 in 0.0 W/m2 CLR
05:24 40.1 °F 34.1 °F 29.67 in WNW 5.9 mph 10.4 mph 79 % 0.00 in 0.0 W/m2 CLR
05:29 40.2 °F 34.2 °F 29.67 in WNW 6.6 mph 9.0 mph 79 % 0.00 in 0.0 W/m2 CLR
05:34 40.2 °F 34.2 °F 29.67 in West 6.9 mph 12.7 mph 79 % 0.00 in 0.0 W/m2 CLR
05:39 40.3 °F 34.0 °F 29.67 in WSW 8.3 mph 10.4 mph 78 % 0.00 in 0.0 W/m2 CLR
05:44 40.3 °F 34.0 °F 29.67 in West 3.9 mph 10.4 mph 78 % 0.00 in 0.0 W/m2 CLR
05:50 40.3 °F 34.0 °F 29.67 in NW 7.9 mph 11.5 mph 78 % 0.00 in 0.0 W/m2 CLR
05:55 40.4 °F 34.1 °F 29.67 in West 11.4 mph 13.8 mph 78 % 0.00 in 0.0 W/m2 CLR
06:00 40.4 °F 34.1 °F 29.68 in West 8.4 mph 11.5 mph 78 % 0.00 in 0.0 W/m2 CLR
06:05 40.5 °F 33.9 °F 29.68 in SW 11.5 mph 17.3 mph 77 % 0.00 in 0.0 W/m2 CLR
06:10 40.6 °F 34.0 °F 29.68 in West 10.0 mph 14.0 mph 77 % 0.00 in 0.0 W/m2 CLR
06:15 40.7 °F 34.0 °F 29.69 in West 11.1 mph 16.1 mph 77 % 0.00 in 0.0 W/m2 CLR
06:20 40.8 °F 33.8 °F 29.68 in West 10.4 mph 14.0 mph 76 % 0.00 in 0.0 W/m2 CLR
06:25 40.9 °F 33.9 °F 29.68 in NW 8.4 mph 13.8 mph 76 % 0.00 in 0.0 W/m2 CLR
06:30 41.0 °F 33.7 °F 29.69 in NW 11.3 mph 18.4 mph 75 % 0.00 in 0.0 W/m2 CLR
06:35 41.1 °F 33.8 °F 29.69 in WNW 9.4 mph 15.0 mph 75 % 0.00 in 0.0 W/m2 CLR
06:40 41.1 °F 33.4 °F 29.69 in NW 14.9 mph 20.7 mph 74 % 0.00 in 0.0 W/m2 CLR
06:45 41.2 °F 33.5 °F 29.69 in WNW 14.9 mph 20.7 mph 74 % 0.00 in 0.0 W/m2 CLR
06:50 41.3 °F 33.3 °F 29.70 in WNW 11.2 mph 16.1 mph 73 % 0.00 in 0.0 W/m2 CLR
06:55 41.3 °F 33.3 °F 29.70 in WNW 7.6 mph 12.0 mph 73 % 0.00 in 0.0 W/m2 CLR
07:00 41.3 °F 33.3 °F 29.70 in NW 11.4 mph 16.1 mph 73 % 0.00 in 0.0 W/m2 OVC
07:05 41.3 °F 33.3 °F 29.70 in WNW 14.2 mph 21.9 mph 73 % 0.00 in 0.0 W/m2 OVC
07:10 41.3 °F 33.0 °F 29.70 in West 10.3 mph 21.9 mph 72 % 0.00 in 0.0 W/m2 OVC
07:15 41.3 °F 33.0 °F 29.70 in West 10.5 mph 16.1 mph 72 % 0.00 in 0.0 W/m2 OVC
07:20 41.3 °F 33.0 °F 29.70 in NW 12.9 mph 19.6 mph 72 % 0.00 in 5.0 W/m2 OVC
07:25 41.3 °F 33.0 °F 29.70 in WNW 7.5 mph 10.4 mph 72 % 0.00 in 7.0 W/m2 OVC
07:30 41.3 °F 33.0 °F 29.70 in NW 10.5 mph 19.6 mph 72 % 0.00 in 9.0 W/m2 OVC
07:35 41.3 °F 33.0 °F 29.70 in NW 11.3 mph 17.3 mph 72 % 0.00 in 12.0 W/m2 OVC
07:40 41.4 °F 33.0 °F 29.71 in NNW 15.0 mph 21.9 mph 72 % 0.00 in 18.0 W/m2 CLR
07:45 41.5 °F 32.8 °F 29.71 in West 7.5 mph 12.7 mph 71 % 0.00 in 23.0 W/m2 CLR
07:50 41.5 °F 32.8 °F 29.71 in NNW 14.7 mph 16.0 mph 71 % 0.00 in 26.0 W/m2 CLR
07:55 41.6 °F 32.9 °F 29.70 in NW 12.0 mph 16.1 mph 71 % 0.00 in 35.0 W/m2 CLR
08:00 41.7 °F 33.0 °F 29.70 in NW 12.3 mph 19.6 mph 71 % 0.00 in 33.0 W/m2 CLR
08:05 41.8 °F 33.1 °F 29.70 in NNW 6.4 mph 19.6 mph 71 % 0.00 in 40.0 W/m2 FEW
08:10 41.8 °F 32.7 °F 29.70 in NW 15.3 mph 23.0 mph 70 % 0.00 in 49.0 W/m2 FEW
08:16 41.9 °F 32.8 °F 29.71 in WNW 17.3 mph 26.5 mph 70 % 0.00 in 39.0 W/m2 SCT
08:21 42.0 °F 32.9 °F 29.70 in WNW 10.3 mph 19.0 mph 70 % 0.00 in 39.0 W/m2 BKN
08:26 42.1 °F 33.0 °F 29.70 in NW 7.7 mph 12.7 mph 70 % 0.00 in 33.0 W/m2 SCT
08:31 42.1 °F 33.0 °F 29.70 in West 8.9 mph 15.0 mph 70 % 0.00 in 44.0 W/m2 BKN
08:36 42.1 °F 33.0 °F 29.71 in NW 12.4 mph 15.0 mph 70 % 0.00 in 49.0 W/m2 BKN
08:41 42.1 °F 33.0 °F 29.71 in NW 4.5 mph 10.0 mph 70 % 0.00 in 54.0 W/m2 BKN
08:46 42.2 °F 33.1 °F 29.72 in NW 14.5 mph 21.9 mph 70 % 0.00 in 49.0 W/m2 BKN
08:51 42.3 °F 33.2 °F 29.72 in NW 7.1 mph 15.0 mph 70 % 0.00 in 77.0 W/m2 SCT
08:56 42.5 °F 33.4 °F 29.72 in West 8.6 mph 11.5 mph 70 % 0.00 in 95.0 W/m2 SCT
09:01 42.8 °F 33.3 °F 29.72 in WNW 13.1 mph 19.6 mph 69 % 0.00 in 98.0 W/m2 SCT
09:06 42.9 °F 33.1 °F 29.73 in WSW 14.2 mph 20.7 mph 68 % 0.00 in 116.0 W/m2 SCT
09:11 43.1 °F 33.3 °F 29.73 in WNW 8.7 mph 12.7 mph 68 % 0.00 in 120.0 W/m2 SCT
09:18 43.3 °F 33.4 °F 29.73 in NNW 14.0 mph 14.0 mph 68 % 0.00 in 199.0 W/m2 OVC
09:23 43.4 °F 33.2 °F 29.73 in NW 14.1 mph 20.0 mph 67 % 0.00 in 279.0 W/m2 CLR
09:28 43.8 °F 33.2 °F 29.73 in West 11.5 mph 18.4 mph 66 % 0.00 in 399.0 W/m2 CLR
09:33 44.7 °F 33.6 °F 29.73 in WNW 10.5 mph 13.0 mph 65 % 0.00 in 427.0 W/m2 CLR
09:38 45.1 °F 34.0 °F 29.73 in NW 10.9 mph 15.0 mph 65 % 0.00 in 292.0 W/m2 CLR
09:43 45.0 °F 33.9 °F 29.73 in NW 7.8 mph 16.1 mph 65 % 0.00 in 128.0 W/m2 FEW
09:48 45.1 °F 33.6 °F 29.73 in NW 10.2 mph 13.8 mph 64 % 0.00 in 381.0 W/m2 BKN
09:53 45.4 °F 33.9 °F 29.73 in NW 11.7 mph 17.3 mph 64 % 0.00 in 408.0 W/m2 CLR
09:58 45.4 °F 33.5 °F 29.73 in North 11.1 mph 18.4 mph 63 % 0.00 in 343.0 W/m2 CLR
10:03 45.4 °F 33.5 °F 29.73 in WNW 9.9 mph 17.3 mph 63 % 0.00 in 396.0 W/m2 CLR
10:08 45.7 °F 33.8 °F 29.73 in NW 11.2 mph 15.0 mph 63 % 0.00 in 399.0 W/m2 CLR
10:13 45.7 °F 33.4 °F 29.72 in NW 6.8 mph 12.7 mph 62 % 0.00 in 95.0 W/m2 BKN
10:18 45.9 °F 33.6 °F 29.73 in NW 5.2 mph 10.4 mph 62 % 0.00 in 439.0 W/m2 SCT
10:24 45.8 °F 33.5 °F 29.73 in NW 11.2 mph 12.7 mph 62 % 0.00 in 262.0 W/m2 SCT
10:29 46.0 °F 34.1 °F 29.73 in NW 10.4 mph 14.0 mph 63 % 0.00 in 385.0 W/m2 CLR
10:34 45.8 °F 33.1 °F 29.73 in WSW 10.7 mph 19.6 mph 61 % 0.00 in 102.0 W/m2 OVC
10:39 46.2 °F 33.9 °F 29.73 in West 8.9 mph 17.3 mph 62 % 0.00 in 160.0 W/m2 CLR
10:44 46.4 °F 33.7 °F 29.73 in NW 9.7 mph 14.0 mph 61 % 0.00 in 345.0 W/m2 SCT
10:49 46.9 °F 34.1 °F 29.74 in WNW 8.6 mph 17.3 mph 61 % 0.00 in 255.0 W/m2 SCT
10:54 47.4 °F 34.2 °F 29.74 in West 11.0 mph 17.3 mph 60 % 0.00 in 255.0 W/m2 FEW
10:59 46.8 °F 33.6 °F 29.73 in WNW 11.5 mph 16.1 mph 60 % 0.00 in 350.0 W/m2 CLR
11:04 46.8 °F 33.6 °F 29.73 in WNW 10.3 mph 18.4 mph 60 % 0.00 in 343.0 W/m2 CLR
11:09 47.1 °F 33.9 °F 29.73 in West 9.5 mph 15.0 mph 60 % 0.00 in 357.0 W/m2 CLR
11:14 47.6 °F 34.0 °F 29.73 in West 11.7 mph 16.1 mph 59 % 0.00 in 327.0 W/m2 CLR
11:19 47.8 °F 34.2 °F 29.73 in NW 11.6 mph 16.1 mph 59 % 0.00 in 410.0 W/m2 CLR
11:24 47.9 °F 34.3 °F 29.72 in WNW 9.3 mph 12.7 mph 59 % 0.00 in 527.0 W/m2 CLR
11:29 48.4 °F 34.7 °F 29.72 in WNW 9.8 mph 12.7 mph 59 % 0.00 in 534.0 W/m2 CLR
11:34 48.1 °F 34.0 °F 29.72 in West 7.5 mph 11.5 mph 58 % 0.00 in 543.0 W/m2 CLR
11:39 47.6 °F 34.0 °F 29.72 in WNW 9.4 mph 12.7 mph 59 % 0.00 in 557.0 W/m2 CLR
11:44 47.8 °F 33.7 °F 29.70 in WSW 9.2 mph 15.0 mph 58 % 0.00 in 543.0 W/m2 CLR
11:49 47.6 °F 33.5 °F 29.71 in West 12.2 mph 18.0 mph 58 % 0.00 in 536.0 W/m2 CLR
11:54 47.7 °F 33.6 °F 29.71 in WNW 11.3 mph 16.1 mph 58 % 0.00 in 399.0 W/m2 CLR
11:59 47.7 °F 34.1 °F 29.70 in West 8.8 mph 12.7 mph 59 % 0.00 in 545.0 W/m2 CLR
12:04 48.1 °F 34.0 °F 29.70 in WNW 6.4 mph 17.3 mph 58 % 0.00 in 545.0 W/m2 CLR
12:09 48.7 °F 34.1 °F 29.70 in NW 6.7 mph 16.0 mph 57 % 0.00 in 548.0 W/m2 CLR
12:14 48.9 °F 34.3 °F 29.71 in WNW 5.3 mph 10.4 mph 57 % 0.00 in 547.0 W/m2 CLR
12:19 49.4 °F 34.8 °F 29.70 in NW 8.7 mph 18.0 mph 57 % 0.00 in 548.0 W/m2 CLR
12:24 49.2 °F 34.2 °F 29.70 in WNW 10.9 mph 16.1 mph 56 % 0.00 in 554.0 W/m2 CLR
12:29 49.2 °F 34.6 °F 29.70 in WNW 11.3 mph 12.7 mph 57 % 0.00 in 541.0 W/m2 CLR
12:34 49.3 °F 35.1 °F 29.69 in WNW 7.4 mph 10.4 mph 58 % 0.00 in 538.0 W/m2 CLR
12:39 49.3 °F 34.7 °F 29.70 in West 10.2 mph 16.1 mph 57 % 0.00 in 534.0 W/m2 CLR
12:44 49.3 °F 34.7 °F 29.70 in West 8.8 mph 13.0 mph 57 % 0.00 in 536.0 W/m2 CLR
12:49 49.0 °F 34.4 °F 29.70 in WNW 4.8 mph 15.0 mph 57 % 0.00 in 526.0 W/m2 CLR
12:54 49.3 °F 35.1 °F 29.69 in WNW 6.7 mph 8.1 mph 58 % 0.00 in 534.0 W/m2 CLR
12:59 49.8 °F 35.2 °F 29.69 in WSW 7.6 mph 16.0 mph 57 % 0.00 in 526.0 W/m2 CLR
13:04 49.6 °F 34.5 °F 29.69 in WNW 10.6 mph 12.0 mph 56 % 0.00 in 524.0 W/m2 CLR
13:09 50.1 °F 35.4 °F 29.69 in West 8.6 mph 15.0 mph 57 % 0.00 in 513.0 W/m2 CLR
13:14 49.9 °F 34.8 °F 29.69 in West 8.2 mph 11.5 mph 56 % 0.00 in 503.0 W/m2 CLR
13:19 50.1 °F 35.4 °F 29.69 in NW 7.8 mph 10.4 mph 57 % 0.00 in 504.0 W/m2 CLR
13:24 50.3 °F 35.2 °F 29.69 in WSW 5.1 mph 9.2 mph 56 % 0.00 in 494.0 W/m2 CLR
13:29 50.0 °F 35.4 °F 29.70 in West 8.7 mph 12.7 mph 57 % 0.00 in 489.0 W/m2 CLR
13:34 49.7 °F 35.1 °F 29.69 in WSW 8.5 mph 15.0 mph 57 % 0.00 in 485.0 W/m2 CLR
13:39 49.3 °F 35.1 °F 29.69 in West 5.6 mph 10.4 mph 58 % 0.00 in 475.0 W/m2 CLR
13:44 49.7 °F 35.9 °F 29.69 in WSW 6.1 mph 8.1 mph 59 % 0.00 in 468.0 W/m2 CLR
13:49 49.6 °F 35.8 °F 29.70 in WNW 8.6 mph 13.0 mph 59 % 0.00 in 454.0 W/m2 CLR
13:54 49.5 °F 35.8 °F 29.70 in West 5.5 mph 12.7 mph 59 % 0.00 in 459.0 W/m2 CLR
13:59 49.9 °F 36.1 °F 29.69 in SW 9.8 mph 11.5 mph 59 % 0.00 in 540.0 W/m2 CLR
14:04 50.1 °F 35.9 °F 29.70 in SW 11.8 mph 15.0 mph 58 % 0.00 in 246.0 W/m2 CLR
14:09 49.6 °F 35.8 °F 29.69 in WSW 7.5 mph 11.5 mph 59 % 0.00 in 552.0 W/m2 SCT
14:15 50.2 °F 36.4 °F 29.69 in WSW 6.7 mph 8.1 mph 59 % 0.00 in 450.0 W/m2 CLR
14:20 50.3 °F 36.1 °F 29.69 in SW 7.6 mph 11.5 mph 58 % 0.00 in 418.0 W/m2 CLR
14:25 50.6 °F 36.4 °F 29.69 in SW 6.6 mph 11.5 mph 58 % 0.00 in 387.0 W/m2 CLR
14:30 50.4 °F 36.2 °F 29.69 in WSW 8.5 mph 13.0 mph 58 % 0.00 in 374.0 W/m2 CLR
14:35 50.5 °F 35.8 °F 29.69 in West 9.2 mph 12.7 mph 57 % 0.00 in 371.0 W/m2 CLR
14:40 50.7 °F 36.0 °F 29.68 in WSW 7.3 mph 10.4 mph 57 % 0.00 in 355.0 W/m2 CLR
14:45 51.4 °F 36.2 °F 29.69 in West 11.8 mph 13.8 mph 56 % 0.00 in 341.0 W/m2 CLR
14:50 51.1 °F 36.4 °F 29.69 in SW 9.1 mph 12.7 mph 57 % 0.00 in 329.0 W/m2 CLR
14:55 51.0 °F 36.3 °F 29.69 in SW 8.6 mph 14.0 mph 57 % 0.00 in 318.0 W/m2 CLR
15:00 50.7 °F 36.0 °F 29.69 in WSW 7.4 mph 11.5 mph 57 % 0.00 in 302.0 W/m2 CLR
15:05 50.9 °F 36.2 °F 29.69 in West 4.9 mph 9.2 mph 57 % 0.00 in 287.0 W/m2 CLR
15:10 51.1 °F 36.4 °F 29.69 in West 5.7 mph 8.1 mph 57 % 0.00 in 276.0 W/m2 CLR
15:15 51.2 °F 36.5 °F 29.69 in SW 5.3 mph 9.2 mph 57 % 0.00 in 264.0 W/m2 CLR
15:20 51.2 °F 36.5 °F 29.68 in SW 9.3 mph 13.8 mph 57 % 0.00 in 250.0 W/m2 CLR
15:25 50.9 °F 36.2 °F 29.68 in West 8.0 mph 12.7 mph 57 % 0.00 in 234.0 W/m2 CLR
15:30 50.8 °F 36.5 °F 29.68 in West 7.2 mph 11.5 mph 58 % 0.00 in 214.0 W/m2 CLR
15:35 51.1 °F 36.8 °F 29.68 in SSW 5.6 mph 9.0 mph 58 % 0.00 in 197.0 W/m2 CLR
15:40 50.7 °F 36.0 °F 29.68 in South 6.3 mph 9.0 mph 57 % 0.00 in 183.0 W/m2 CLR
15:45 50.8 °F 36.5 °F 29.68 in West 3.5 mph 5.8 mph 58 % 0.00 in 165.0 W/m2 CLR
15:50 51.1 °F 36.4 °F 29.68 in WSW 2.2 mph 5.8 mph 57 % 0.00 in 148.0 W/m2 CLR
15:52 51.2 °F 36.5 °F 29.68 in SW 9.0 mph 11.5 mph 57 % 0.00 in 146.0 W/m2 CLR
15:57 51.1 °F 36.4 °F 29.68 in West 6.6 mph 11.5 mph 57 % 0.00 in 130.0 W/m2 CLR
16:02 51.0 °F 36.3 °F 29.68 in WSW 3.3 mph 5.8 mph 57 % 0.00 in 114.0 W/m2 CLR
16:07 51.1 °F 36.4 °F 29.68 in SW 4.4 mph 8.1 mph 57 % 0.00 in 97.0 W/m2 CLR
16:12 51.0 °F 35.8 °F 29.67 in WSW 5.2 mph 8.1 mph 56 % 0.00 in 86.0 W/m2 FEW
16:17 51.0 °F 36.3 °F 29.67 in WSW 3.4 mph 8.1 mph 57 % 0.00 in 63.0 W/m2 SCT
16:22 51.0 °F 35.8 °F 29.67 in WSW 2.8 mph 7.0 mph 56 % 0.00 in 51.0 W/m2 SCT
16:27 51.0 °F 36.3 °F 29.67 in WSW 2.9 mph 6.9 mph 57 % 0.00 in 40.0 W/m2 SCT
16:32 50.8 °F 36.1 °F 29.67 in WSW 3.1 mph 5.8 mph 57 % 0.00 in 32.0 W/m2 SCT
16:37 50.7 °F 36.0 °F 29.67 in WSW 5.1 mph 8.1 mph 57 % 0.00 in 26.0 W/m2 SCT
16:42 50.5 °F 36.3 °F 29.67 in WSW 0.2 mph 2.3 mph 58 % 0.00 in 21.0 W/m2 SCT
16:47 50.4 °F 36.2 °F 29.67 in Calm     58 % 0.00 in 18.0 W/m2 SCT
16:52 50.2 °F 36.0 °F 29.68 in Calm     58 % 0.00 in 16.0 W/m2 FEW
16:57 50.0 °F 36.2 °F 29.68 in Calm     59 % 0.00 in 12.0 W/m2 FEW
17:02 49.9 °F 36.1 °F 29.67 in Calm     59 % 0.00 in 11.0 W/m2 CLR
17:07 49.6 °F 36.3 °F 29.67 in Calm     60 % 0.00 in 7.0 W/m2 OVC
17:12 49.2 °F 36.3 °F 29.67 in Calm     61 % 0.00 in 5.0 W/m2 OVC
17:17 49.0 °F 36.1 °F 29.67 in Calm     61 % 0.00 in 0.0 W/m2 OVC
17:22 48.8 °F 36.4 °F 29.67 in Calm     62 % 0.00 in 0.0 W/m2 OVC
17:28 48.3 °F 36.3 °F 29.67 in Calm     63 % 0.00 in 0.0 W/m2 OVC
17:33 48.0 °F 36.0 °F 29.67 in Calm     63 % 0.00 in 0.0 W/m2 OVC
17:38 47.7 °F 36.1 °F 29.67 in Calm     64 % 0.00 in 0.0 W/m2 OVC
17:43 47.4 °F 35.8 °F 29.67 in Calm     64 % 0.00 in 0.0 W/m2 OVC
17:48 47.3 °F 35.7 °F 29.67 in Calm     64 % 0.00 in 0.0 W/m2 CLR
17:53 47.1 °F 35.9 °F 29.66 in Calm     65 % 0.00 in 0.0 W/m2 CLR
17:58 47.3 °F 35.7 °F 29.66 in Calm     64 % 0.00 in 0.0 W/m2 CLR
18:03 46.5 °F 35.7 °F 29.66 in Calm     66 % 0.00 in 0.0 W/m2 CLR
18:08 46.1 °F 35.7 °F 29.66 in Calm     67 % 0.00 in 0.0 W/m2 CLR
18:13 45.9 °F 35.6 °F 29.66 in Calm     67 % 0.00 in 0.0 W/m2 CLR
18:18 45.2 °F 35.6 °F 29.66 in Calm     69 % 0.00 in 0.0 W/m2 CLR
18:23 44.8 °F 35.2 °F 29.66 in Calm     69 % 0.00 in 0.0 W/m2 CLR
18:28 44.1 °F 34.9 °F 29.66 in Calm     70 % 0.00 in 0.0 W/m2 CLR
18:34 44.2 °F 35.4 °F 29.66 in Calm     71 % 0.00 in 0.0 W/m2 CLR
18:39 44.4 °F 35.6 °F 29.66 in Calm     71 % 0.00 in 0.0 W/m2 CLR
18:44 44.9 °F 35.7 °F 29.66 in Calm     70 % 0.00 in 0.0 W/m2 CLR
18:49 44.7 °F 35.1 °F 29.67 in Calm     69 % 0.00 in 0.0 W/m2 CLR
18:54 43.5 °F 34.7 °F 29.67 in Calm     71 % 0.00 in 0.0 W/m2 CLR
18:59 42.9 °F 34.5 °F 29.67 in Calm     72 % 0.00 in 0.0 W/m2 CLR
19:04 42.8 °F 34.7 °F 29.67 in Calm     73 % 0.00 in 0.0 W/m2 CLR
19:09 43.1 °F 35.0 °F 29.67 in Calm     73 % 0.00 in 0.0 W/m2 CLR
19:14 43.2 °F 35.1 °F 29.67 in Calm     73 % 0.00 in 0.0 W/m2 CLR
19:20 43.2 °F 35.1 °F 29.67 in Calm     73 % 0.00 in 0.0 W/m2 CLR
19:25 43.2 °F 35.1 °F 29.67 in Calm     73 % 0.00 in 0.0 W/m2 CLR
19:30 43.3 °F 35.2 °F 29.66 in Calm     73 % 0.00 in 0.0 W/m2 CLR
19:35 43.9 °F 35.4 °F 29.66 in Calm   1.0 mph 72 % 0.00 in 0.0 W/m2 CLR
19:40 42.5 °F 34.1 °F 29.66 in Calm     72 % 0.00 in 0.0 W/m2 CLR
19:45 41.9 °F 33.9 °F 29.66 in Calm     73 % 0.00 in 0.0 W/m2 CLR
19:50 41.4 °F 33.7 °F 29.65 in Calm     74 % 0.00 in 0.0 W/m2 CLR
19:55 41.5 °F 34.2 °F 29.65 in Calm     75 % 0.00 in 0.0 W/m2 CLR
20:00 41.9 °F 34.6 °F 29.66 in Calm   1.2 mph 75 % 0.00 in 0.0 W/m2 CLR
20:05 41.2 °F 33.9 °F 29.66 in West 2.0 mph 3.5 mph 75 % 0.00 in 0.0 W/m2 CLR
20:10 41.0 °F 34.0 °F 29.66 in West 1.8 mph 2.3 mph 76 % 0.00 in 0.0 W/m2 CLR
20:15 40.5 °F 33.5 °F 29.65 in Calm     76 % 0.00 in 0.0 W/m2 CLR
20:20 40.1 °F 33.5 °F 29.65 in Calm     77 % 0.00 in 0.0 W/m2 CLR
20:25 40.4 °F 34.1 °F 29.64 in Calm     78 % 0.00 in 0.0 W/m2 CLR
20:30 40.1 °F 33.8 °F 29.63 in Calm     78 % 0.00 in 0.0 W/m2 CLR
20:35 40.0 °F 34.0 °F 29.63 in West 2.4 mph 2.4 mph 79 % 0.00 in 0.0 W/m2 CLR
20:40 40.2 °F 34.2 °F 29.63 in Calm     79 % 0.00 in 0.0 W/m2 CLR
20:45 40.8 °F 34.8 °F 29.63 in West 1.4 mph 3.5 mph 79 % 0.00 in 0.0 W/m2 CLR
20:51 42.1 °F 35.7 °F 29.63 in SW 1.1 mph 3.5 mph 78 % 0.00 in 0.0 W/m2 CLR
20:56 42.8 °F 35.4 °F 29.62 in SW 0.2 mph   75 % 0.00 in 0.0 W/m2 CLR
21:01 43.2 °F 35.5 °F 29.63 in SW 2.1 mph 3.5 mph 74 % 0.00 in 0.0 W/m2 CLR
21:06 43.6 °F 35.5 °F 29.64 in SW 2.9 mph 4.6 mph 73 % 0.00 in 0.0 W/m2 CLR
21:11 44.4 °F 35.9 °F 29.63 in SSW 1.7 mph 3.5 mph 72 % 0.00 in 0.0 W/m2 CLR
21:16 44.9 °F 35.7 °F 29.62 in SSW 0.1 mph 1.2 mph 70 % 0.00 in 0.0 W/m2 CLR
21:21 45.1 °F 35.9 °F 29.61 in Calm     70 % 0.00 in 0.0 W/m2 CLR
21:26 45.1 °F 35.5 °F 29.61 in Calm     69 % 0.00 in 0.0 W/m2 CLR
21:31 44.7 °F 35.5 °F 29.62 in SSW 0.4 mph 2.3 mph 70 % 0.00 in 0.0 W/m2 CLR
21:36 44.9 °F 35.7 °F 29.61 in Calm     70 % 0.00 in 0.0 W/m2 CLR
21:41 44.9 °F 35.7 °F 29.60 in Calm     70 % 0.00 in 0.0 W/m2 CLR
21:46 45.2 °F 36.0 °F 29.60 in Calm     70 % 0.00 in 0.0 W/m2 CLR
21:51 45.7 °F 35.7 °F 29.60 in Calm     68 % 0.00 in 0.0 W/m2 CLR
21:56 45.6 °F 36.0 °F 29.60 in Calm     69 % 0.00 in 0.0 W/m2 CLR
22:01 45.5 °F 35.9 °F 29.59 in Calm     69 % 0.00 in 0.0 W/m2 CLR
22:06 45.3 °F 35.7 °F 29.59 in Calm     69 % 0.00 in 0.0 W/m2 CLR
22:11 44.8 °F 36.0 °F 29.59 in Calm     71 % 0.00 in 0.0 W/m2 CLR
22:16 44.7 °F 36.2 °F 29.59 in Calm     72 % 0.00 in 0.0 W/m2 CLR
22:21 45.0 °F 36.2 °F 29.59 in Calm     71 % 0.00 in 0.0 W/m2 CLR
22:26 45.2 °F 36.4 °F 29.59 in Calm     71 % 0.00 in 0.0 W/m2 CLR
22:31 45.3 °F 36.1 °F 29.59 in Calm   1.2 mph 70 % 0.00 in 0.0 W/m2 CLR
22:36 45.4 °F 35.8 °F 29.58 in SW 0.3 mph 3.5 mph 69 % 0.00 in 0.0 W/m2 CLR
22:41 45.7 °F 35.7 °F 29.58 in Calm     68 % 0.00 in 0.0 W/m2 CLR
22:46 45.6 °F 35.6 °F 29.58 in Calm   1.0 mph 68 % 0.00 in 0.0 W/m2 CLR
22:51 45.8 °F 35.8 °F 29.58 in SW 0.6 mph 2.3 mph 68 % 0.00 in 0.0 W/m2 CLR
22:56 46.3 °F 35.9 °F 29.58 in SSW 3.9 mph 4.6 mph 67 % 0.00 in 0.0 W/m2 CLR
23:01 46.5 °F 35.7 °F 29.58 in WSW 0.2 mph 2.0 mph 66 % 0.00 in 0.0 W/m2 CLR
23:06 46.6 °F 35.8 °F 29.58 in WSW 0.3 mph 1.0 mph 66 % 0.00 in 0.0 W/m2 CLR
23:11 46.5 °F 35.7 °F 29.58 in Calm     66 % 0.00 in 0.0 W/m2 CLR
23:16 46.4 °F 35.7 °F 29.58 in Calm     66 % 0.00 in 0.0 W/m2 CLR
23:21 46.1 °F 35.7 °F 29.58 in Calm     67 % 0.00 in 0.0 W/m2 CLR
23:26 46.0 °F 35.7 °F 29.57 in Calm     67 % 0.00 in 0.0 W/m2 CLR
23:31 45.4 °F 35.5 °F 29.57 in Calm     68 % 0.00 in 0.0 W/m2 CLR
23:36 45.2 °F 35.6 °F 29.57 in Calm     69 % 0.00 in 0.0 W/m2 CLR
23:41 45.2 °F 35.6 °F 29.57 in Calm     69 % 0.00 in 0.0 W/m2 CLR
23:47 44.8 °F 35.2 °F 29.57 in Calm     69 % 0.00 in 0.0 W/m2 CLR
23:52 44.6 °F 35.1 °F 29.57 in NW 2.5 mph 3.5 mph 69 % 0.00 in 0.0 W/m2 CLR
23:57 43.8 °F 35.0 °F 29.56 in NW 1.3 mph 3.5 mph 71 % 0.00 in 0.0 W/m2 CLR
Air Products Campus Weather
Compliments of Weather Underground - 3.75 mb